sensor_id;sensor_type;location;lat;lon;timestamp;P1;durP1;ratioP1;P2;durP2;ratioP2
15317;SDS011;7759;52.528;13.346;2023-02-28T00:00:06;4.60;;;2.07;;
15317;SDS011;7759;52.528;13.346;2023-02-28T00:02:39;4.10;;;1.50;;
15317;SDS011;7759;52.528;13.346;2023-02-28T00:05:05;4.90;;;1.90;;
15317;SDS011;7759;52.528;13.346;2023-02-28T00:07:31;3.87;;;1.90;;
15317;SDS011;7759;52.528;13.346;2023-02-28T00:09:57;2.90;;;1.70;;
15317;SDS011;7759;52.528;13.346;2023-02-28T00:12:23;2.80;;;1.63;;
15317;SDS011;7759;52.528;13.346;2023-02-28T00:14:49;4.50;;;1.70;;
15317;SDS011;7759;52.528;13.346;2023-02-28T00:17:15;3.23;;;1.77;;
15317;SDS011;7759;52.528;13.346;2023-02-28T00:19:47;3.43;;;1.90;;
15317;SDS011;7759;52.528;13.346;2023-02-28T00:22:14;3.67;;;1.70;;
15317;SDS011;7759;52.528;13.346;2023-02-28T00:24:39;3.50;;;1.67;;
15317;SDS011;7759;52.528;13.346;2023-02-28T00:27:05;5.07;;;2.27;;
15317;SDS011;7759;52.528;13.346;2023-02-28T00:29:31;3.63;;;1.77;;
15317;SDS011;7759;52.528;13.346;2023-02-28T00:31:57;3.27;;;1.80;;
15317;SDS011;7759;52.528;13.346;2023-02-28T00:34:23;4.37;;;2.03;;
15317;SDS011;7759;52.528;13.346;2023-02-28T00:36:49;2.70;;;1.57;;
15317;SDS011;7759;52.528;13.346;2023-02-28T00:39:15;2.87;;;1.33;;
15317;SDS011;7759;52.528;13.346;2023-02-28T00:41:41;2.17;;;1.43;;
15317;SDS011;7759;52.528;13.346;2023-02-28T00:44:07;3.53;;;1.90;;
15317;SDS011;7759;52.528;13.346;2023-02-28T00:46:33;3.73;;;2.27;;
15317;SDS011;7759;52.528;13.346;2023-02-28T00:48:59;4.70;;;1.90;;
15317;SDS011;7759;52.528;13.346;2023-02-28T00:51:25;4.73;;;1.70;;
15317;SDS011;7759;52.528;13.346;2023-02-28T00:53:51;4.20;;;1.50;;
15317;SDS011;7759;52.528;13.346;2023-02-28T00:56:17;3.53;;;1.67;;
15317;SDS011;7759;52.528;13.346;2023-02-28T00:58:43;3.07;;;1.90;;
15317;SDS011;7759;52.528;13.346;2023-02-28T01:01:09;3.63;;;1.57;;
15317;SDS011;7759;52.528;13.346;2023-02-28T01:03:34;5.97;;;2.00;;
15317;SDS011;7759;52.528;13.346;2023-02-28T01:06:00;4.17;;;1.70;;
15317;SDS011;7759;52.528;13.346;2023-02-28T01:08:26;4.50;;;2.03;;
15317;SDS011;7759;52.528;13.346;2023-02-28T01:10:52;5.40;;;1.80;;
15317;SDS011;7759;52.528;13.346;2023-02-28T01:13:18;2.40;;;1.67;;
15317;SDS011;7759;52.528;13.346;2023-02-28T01:15:49;3.90;;;1.80;;
15317;SDS011;7759;52.528;13.346;2023-02-28T01:18:16;2.97;;;1.60;;
15317;SDS011;7759;52.528;13.346;2023-02-28T01:20:42;5.57;;;1.97;;
15317;SDS011;7759;52.528;13.346;2023-02-28T01:23:08;5.70;;;2.13;;
15317;SDS011;7759;52.528;13.346;2023-02-28T01:25:34;3.10;;;1.83;;
15317;SDS011;7759;52.528;13.346;2023-02-28T01:28:00;3.00;;;1.90;;
15317;SDS011;7759;52.528;13.346;2023-02-28T01:30:26;2.80;;;1.80;;
15317;SDS011;7759;52.528;13.346;2023-02-28T01:32:52;3.13;;;1.43;;
15317;SDS011;7759;52.528;13.346;2023-02-28T01:35:18;1.97;;;1.30;;
15317;SDS011;7759;52.528;13.346;2023-02-28T01:37:44;5.33;;;2.13;;
15317;SDS011;7759;52.528;13.346;2023-02-28T01:40:11;5.07;;;1.93;;
15317;SDS011;7759;52.528;13.346;2023-02-28T01:42:37;2.83;;;1.67;;
15317;SDS011;7759;52.528;13.346;2023-02-28T01:45:18;2.87;;;1.70;;
15317;SDS011;7759;52.528;13.346;2023-02-28T01:47:44;3.27;;;2.13;;
15317;SDS011;7759;52.528;13.346;2023-02-28T01:50:18;2.80;;;1.57;;
15317;SDS011;7759;52.528;13.346;2023-02-28T01:52:45;6.17;;;1.60;;
15317;SDS011;7759;52.528;13.346;2023-02-28T01:55:11;3.27;;;2.20;;
15317;SDS011;7759;52.528;13.346;2023-02-28T01:57:40;2.83;;;1.53;;
15317;SDS011;7759;52.528;13.346;2023-02-28T02:00:08;2.27;;;1.37;;
15317;SDS011;7759;52.528;13.346;2023-02-28T02:02:34;4.43;;;1.90;;
15317;SDS011;7759;52.528;13.346;2023-02-28T02:05:03;2.73;;;1.93;;
15317;SDS011;7759;52.528;13.346;2023-02-28T02:07:33;5.87;;;1.83;;
15317;SDS011;7759;52.528;13.346;2023-02-28T02:10:01;3.83;;;1.97;;
15317;SDS011;7759;52.528;13.346;2023-02-28T02:15:00;5.20;;;2.40;;
15317;SDS011;7759;52.528;13.346;2023-02-28T02:20:40;3.40;;;1.80;;
15317;SDS011;7759;52.528;13.346;2023-02-28T02:23:21;3.87;;;1.57;;
15317;SDS011;7759;52.528;13.346;2023-02-28T02:25:52;1.70;;;1.30;;
15317;SDS011;7759;52.528;13.346;2023-02-28T02:28:26;3.67;;;1.90;;
15317;SDS011;7759;52.528;13.346;2023-02-28T02:31:00;4.10;;;1.70;;
15317;SDS011;7759;52.528;13.346;2023-02-28T02:33:39;3.47;;;1.80;;
15317;SDS011;7759;52.528;13.346;2023-02-28T02:36:12;4.07;;;1.83;;
15317;SDS011;7759;52.528;13.346;2023-02-28T02:38:49;4.40;;;1.90;;
15317;SDS011;7759;52.528;13.346;2023-02-28T02:41:38;2.13;;;1.60;;
15317;SDS011;7759;52.528;13.346;2023-02-28T02:44:21;2.83;;;1.70;;
15317;SDS011;7759;52.528;13.346;2023-02-28T02:46:48;2.43;;;1.70;;
15317;SDS011;7759;52.528;13.346;2023-02-28T02:49:29;6.50;;;2.57;;
15317;SDS011;7759;52.528;13.346;2023-02-28T02:51:56;5.03;;;1.90;;
15317;SDS011;7759;52.528;13.346;2023-02-28T02:54:24;3.00;;;1.73;;
15317;SDS011;7759;52.528;13.346;2023-02-28T02:56:53;2.43;;;1.60;;
15317;SDS011;7759;52.528;13.346;2023-02-28T02:59:20;3.20;;;1.73;;
15317;SDS011;7759;52.528;13.346;2023-02-28T03:01:51;3.60;;;2.10;;
15317;SDS011;7759;52.528;13.346;2023-02-28T03:04:19;3.37;;;1.90;;
15317;SDS011;7759;52.528;13.346;2023-02-28T03:06:45;2.90;;;1.70;;
15317;SDS011;7759;52.528;13.346;2023-02-28T03:09:11;2.77;;;1.93;;
15317;SDS011;7759;52.528;13.346;2023-02-28T03:11:37;4.90;;;1.90;;
15317;SDS011;7759;52.528;13.346;2023-02-28T03:14:12;4.70;;;1.87;;
15317;SDS011;7759;52.528;13.346;2023-02-28T03:16:57;2.60;;;1.60;;
15317;SDS011;7759;52.528;13.346;2023-02-28T03:22:10;3.57;;;1.87;;
15317;SDS011;7759;52.528;13.346;2023-02-28T03:24:43;4.40;;;2.27;;
15317;SDS011;7759;52.528;13.346;2023-02-28T03:27:27;3.30;;;1.97;;
15317;SDS011;7759;52.528;13.346;2023-02-28T03:30:01;6.40;;;2.30;;
15317;SDS011;7759;52.528;13.346;2023-02-28T03:32:31;4.17;;;1.83;;
15317;SDS011;7759;52.528;13.346;2023-02-28T03:35:13;4.00;;;2.57;;
15317;SDS011;7759;52.528;13.346;2023-02-28T03:37:46;4.43;;;2.23;;
15317;SDS011;7759;52.528;13.346;2023-02-28T03:40:14;4.10;;;2.37;;
15317;SDS011;7759;52.528;13.346;2023-02-28T03:42:43;3.63;;;2.10;;
15317;SDS011;7759;52.528;13.346;2023-02-28T03:45:12;5.40;;;1.80;;
15317;SDS011;7759;52.528;13.346;2023-02-28T03:48:01;4.13;;;1.67;;
15317;SDS011;7759;52.528;13.346;2023-02-28T03:50:27;5.97;;;2.40;;
15317;SDS011;7759;52.528;13.346;2023-02-28T03:52:57;3.40;;;2.10;;
15317;SDS011;7759;52.528;13.346;2023-02-28T03:55:26;4.53;;;2.00;;
15317;SDS011;7759;52.528;13.346;2023-02-28T03:57:56;4.73;;;2.47;;
15317;SDS011;7759;52.528;13.346;2023-02-28T04:00:26;3.03;;;1.97;;
15317;SDS011;7759;52.528;13.346;2023-02-28T04:02:53;5.23;;;2.73;;
15317;SDS011;7759;52.528;13.346;2023-02-28T04:05:20;2.97;;;1.80;;
15317;SDS011;7759;52.528;13.346;2023-02-28T04:07:46;4.33;;;2.17;;
15317;SDS011;7759;52.528;13.346;2023-02-28T04:10:13;3.90;;;2.17;;
15317;SDS011;7759;52.528;13.346;2023-02-28T04:12:40;5.00;;;1.90;;
15317;SDS011;7759;52.528;13.346;2023-02-28T04:15:06;4.23;;;2.40;;
15317;SDS011;7759;52.528;13.346;2023-02-28T04:17:32;4.63;;;2.63;;
15317;SDS011;7759;52.528;13.346;2023-02-28T04:19:58;3.90;;;2.73;;
15317;SDS011;7759;52.528;13.346;2023-02-28T04:22:24;4.77;;;2.20;;
15317;SDS011;7759;52.528;13.346;2023-02-28T04:24:53;5.97;;;2.20;;
15317;SDS011;7759;52.528;13.346;2023-02-28T04:27:19;3.20;;;2.43;;
15317;SDS011;7759;52.528;13.346;2023-02-28T04:29:48;5.20;;;2.00;;
15317;SDS011;7759;52.528;13.346;2023-02-28T04:32:14;4.57;;;2.40;;
15317;SDS011;7759;52.528;13.346;2023-02-28T04:34:40;4.53;;;2.10;;
15317;SDS011;7759;52.528;13.346;2023-02-28T04:37:06;3.80;;;2.10;;
15317;SDS011;7759;52.528;13.346;2023-02-28T04:39:34;5.27;;;2.30;;
15317;SDS011;7759;52.528;13.346;2023-02-28T04:42:00;3.87;;;2.33;;
15317;SDS011;7759;52.528;13.346;2023-02-28T04:44:26;3.83;;;2.43;;
15317;SDS011;7759;52.528;13.346;2023-02-28T04:46:52;5.37;;;2.13;;
15317;SDS011;7759;52.528;13.346;2023-02-28T04:49:18;8.67;;;2.60;;
15317;SDS011;7759;52.528;13.346;2023-02-28T04:51:44;4.90;;;2.30;;
15317;SDS011;7759;52.528;13.346;2023-02-28T04:54:10;5.40;;;2.40;;
15317;SDS011;7759;52.528;13.346;2023-02-28T04:56:36;5.10;;;2.73;;
15317;SDS011;7759;52.528;13.346;2023-02-28T04:59:02;7.27;;;2.73;;
15317;SDS011;7759;52.528;13.346;2023-02-28T05:01:29;3.53;;;2.17;;
15317;SDS011;7759;52.528;13.346;2023-02-28T05:03:56;5.90;;;2.50;;
15317;SDS011;7759;52.528;13.346;2023-02-28T05:06:23;6.13;;;3.70;;
15317;SDS011;7759;52.528;13.346;2023-02-28T05:08:50;5.93;;;3.10;;
15317;SDS011;7759;52.528;13.346;2023-02-28T05:11:17;6.43;;;2.53;;
15317;SDS011;7759;52.528;13.346;2023-02-28T05:13:44;5.93;;;2.90;;
15317;SDS011;7759;52.528;13.346;2023-02-28T05:16:10;3.60;;;2.33;;
15317;SDS011;7759;52.528;13.346;2023-02-28T05:18:36;5.00;;;2.80;;
15317;SDS011;7759;52.528;13.346;2023-02-28T05:21:02;6.00;;;2.53;;
15317;SDS011;7759;52.528;13.346;2023-02-28T05:23:28;4.67;;;3.00;;
15317;SDS011;7759;52.528;13.346;2023-02-28T05:25:54;5.63;;;2.73;;
15317;SDS011;7759;52.528;13.346;2023-02-28T05:28:20;3.07;;;2.37;;
15317;SDS011;7759;52.528;13.346;2023-02-28T05:30:46;5.00;;;2.73;;
15317;SDS011;7759;52.528;13.346;2023-02-28T05:33:12;6.07;;;2.97;;
15317;SDS011;7759;52.528;13.346;2023-02-28T05:35:39;6.83;;;2.70;;
15317;SDS011;7759;52.528;13.346;2023-02-28T05:38:05;5.77;;;2.47;;
15317;SDS011;7759;52.528;13.346;2023-02-28T05:40:31;6.03;;;2.43;;
15317;SDS011;7759;52.528;13.346;2023-02-28T05:42:57;7.53;;;2.43;;
15317;SDS011;7759;52.528;13.346;2023-02-28T05:45:23;3.43;;;2.23;;
15317;SDS011;7759;52.528;13.346;2023-02-28T05:47:49;4.57;;;2.43;;
15317;SDS011;7759;52.528;13.346;2023-02-28T05:50:18;4.93;;;2.73;;
15317;SDS011;7759;52.528;13.346;2023-02-28T05:52:44;8.77;;;2.67;;
15317;SDS011;7759;52.528;13.346;2023-02-28T05:55:10;5.33;;;2.57;;
15317;SDS011;7759;52.528;13.346;2023-02-28T05:57:36;7.23;;;2.53;;
15317;SDS011;7759;52.528;13.346;2023-02-28T06:00:02;6.53;;;2.63;;
15317;SDS011;7759;52.528;13.346;2023-02-28T06:02:28;6.63;;;2.73;;
15317;SDS011;7759;52.528;13.346;2023-02-28T06:04:54;4.97;;;2.80;;
15317;SDS011;7759;52.528;13.346;2023-02-28T06:07:20;4.37;;;2.87;;
15317;SDS011;7759;52.528;13.346;2023-02-28T06:09:47;4.37;;;2.30;;
15317;SDS011;7759;52.528;13.346;2023-02-28T06:12:13;5.70;;;2.73;;
15317;SDS011;7759;52.528;13.346;2023-02-28T06:14:39;3.97;;;2.37;;
15317;SDS011;7759;52.528;13.346;2023-02-28T06:17:05;3.30;;;2.00;;
15317;SDS011;7759;52.528;13.346;2023-02-28T06:19:31;5.43;;;2.50;;
15317;SDS011;7759;52.528;13.346;2023-02-28T06:21:58;5.37;;;2.40;;
15317;SDS011;7759;52.528;13.346;2023-02-28T06:24:25;6.47;;;2.67;;
15317;SDS011;7759;52.528;13.346;2023-02-28T06:26:52;7.00;;;3.10;;
15317;SDS011;7759;52.528;13.346;2023-02-28T06:29:18;7.77;;;2.93;;
15317;SDS011;7759;52.528;13.346;2023-02-28T06:31:45;6.10;;;3.50;;
15317;SDS011;7759;52.528;13.346;2023-02-28T06:34:11;5.70;;;3.23;;
15317;SDS011;7759;52.528;13.346;2023-02-28T06:36:38;8.33;;;3.20;;
15317;SDS011;7759;52.528;13.346;2023-02-28T06:39:05;5.77;;;3.40;;
15317;SDS011;7759;52.528;13.346;2023-02-28T06:41:33;4.83;;;2.57;;
15317;SDS011;7759;52.528;13.346;2023-02-28T06:44:08;7.00;;;3.17;;
15317;SDS011;7759;52.528;13.346;2023-02-28T06:46:36;5.40;;;3.23;;
15317;SDS011;7759;52.528;13.346;2023-02-28T06:49:03;5.77;;;2.63;;
15317;SDS011;7759;52.528;13.346;2023-02-28T06:51:29;6.30;;;3.20;;
15317;SDS011;7759;52.528;13.346;2023-02-28T06:53:55;11.70;;;4.83;;
15317;SDS011;7759;52.528;13.346;2023-02-28T06:56:21;8.53;;;3.43;;
15317;SDS011;7759;52.528;13.346;2023-02-28T06:58:48;8.07;;;3.70;;
15317;SDS011;7759;52.528;13.346;2023-02-28T07:01:14;6.50;;;3.63;;
15317;SDS011;7759;52.528;13.346;2023-02-28T07:03:40;6.00;;;3.57;;
15317;SDS011;7759;52.528;13.346;2023-02-28T07:06:06;5.03;;;2.90;;
15317;SDS011;7759;52.528;13.346;2023-02-28T07:08:33;9.73;;;3.70;;
15317;SDS011;7759;52.528;13.346;2023-02-28T07:10:59;11.40;;;3.67;;
15317;SDS011;7759;52.528;13.346;2023-02-28T07:13:25;5.77;;;2.90;;
15317;SDS011;7759;52.528;13.346;2023-02-28T07:15:55;7.70;;;3.40;;
15317;SDS011;7759;52.528;13.346;2023-02-28T07:18:21;8.83;;;4.07;;
15317;SDS011;7759;52.528;13.346;2023-02-28T07:20:47;8.47;;;3.87;;
15317;SDS011;7759;52.528;13.346;2023-02-28T07:23:12;6.80;;;3.40;;
15317;SDS011;7759;52.528;13.346;2023-02-28T07:25:38;8.43;;;3.70;;
15317;SDS011;7759;52.528;13.346;2023-02-28T07:28:04;10.57;;;3.50;;
15317;SDS011;7759;52.528;13.346;2023-02-28T07:30:30;6.83;;;4.33;;
15317;SDS011;7759;52.528;13.346;2023-02-28T07:32:56;6.63;;;3.87;;
15317;SDS011;7759;52.528;13.346;2023-02-28T07:35:22;10.87;;;4.37;;
15317;SDS011;7759;52.528;13.346;2023-02-28T07:37:48;13.13;;;3.87;;
15317;SDS011;7759;52.528;13.346;2023-02-28T07:40:14;10.83;;;4.20;;
15317;SDS011;7759;52.528;13.346;2023-02-28T07:42:40;8.03;;;3.33;;
15317;SDS011;7759;52.528;13.346;2023-02-28T07:45:07;6.93;;;3.57;;
15317;SDS011;7759;52.528;13.346;2023-02-28T07:47:36;6.50;;;3.10;;
15317;SDS011;7759;52.528;13.346;2023-02-28T07:50:02;17.40;;;9.30;;
15317;SDS011;7759;52.528;13.346;2023-02-28T07:52:28;5.57;;;3.03;;
15317;SDS011;7759;52.528;13.346;2023-02-28T07:54:54;6.20;;;2.93;;
15317;SDS011;7759;52.528;13.346;2023-02-28T07:57:20;5.00;;;2.70;;
15317;SDS011;7759;52.528;13.346;2023-02-28T07:59:46;7.90;;;3.37;;
15317;SDS011;7759;52.528;13.346;2023-02-28T08:02:13;9.97;;;2.70;;
15317;SDS011;7759;52.528;13.346;2023-02-28T08:04:39;5.10;;;2.33;;
15317;SDS011;7759;52.528;13.346;2023-02-28T08:07:05;7.53;;;2.93;;
15317;SDS011;7759;52.528;13.346;2023-02-28T08:09:31;4.17;;;2.20;;
15317;SDS011;7759;52.528;13.346;2023-02-28T08:11:57;6.33;;;2.57;;
15317;SDS011;7759;52.528;13.346;2023-02-28T08:14:23;3.53;;;1.97;;
15317;SDS011;7759;52.528;13.346;2023-02-28T08:16:49;6.47;;;2.33;;
15317;SDS011;7759;52.528;13.346;2023-02-28T08:19:15;5.67;;;2.53;;
15317;SDS011;7759;52.528;13.346;2023-02-28T08:21:41;5.17;;;2.87;;
15317;SDS011;7759;52.528;13.346;2023-02-28T08:24:07;9.33;;;1.90;;
15317;SDS011;7759;52.528;13.346;2023-02-28T08:26:33;5.87;;;1.97;;
15317;SDS011;7759;52.528;13.346;2023-02-28T08:28:59;5.40;;;1.50;;
15317;SDS011;7759;52.528;13.346;2023-02-28T08:31:25;3.60;;;1.37;;
15317;SDS011;7759;52.528;13.346;2023-02-28T08:33:51;5.90;;;1.37;;
15317;SDS011;7759;52.528;13.346;2023-02-28T08:36:18;2.20;;;1.10;;
15317;SDS011;7759;52.528;13.346;2023-02-28T08:38:45;3.57;;;1.83;;
15317;SDS011;7759;52.528;13.346;2023-02-28T08:41:11;3.13;;;1.67;;
15317;SDS011;7759;52.528;13.346;2023-02-28T08:43:38;4.13;;;1.20;;
15317;SDS011;7759;52.528;13.346;2023-02-28T08:46:04;2.10;;;1.20;;
15317;SDS011;7759;52.528;13.346;2023-02-28T08:48:31;4.63;;;1.27;;
15317;SDS011;7759;52.528;13.346;2023-02-28T08:50:59;5.00;;;1.53;;
15317;SDS011;7759;52.528;13.346;2023-02-28T08:53:26;4.10;;;1.30;;
15317;SDS011;7759;52.528;13.346;2023-02-28T08:55:56;2.43;;;1.63;;
15317;SDS011;7759;52.528;13.346;2023-02-28T08:58:22;3.33;;;1.37;;
15317;SDS011;7759;52.528;13.346;2023-02-28T09:00:48;4.13;;;1.37;;
15317;SDS011;7759;52.528;13.346;2023-02-28T09:03:14;5.70;;;1.83;;
15317;SDS011;7759;52.528;13.346;2023-02-28T09:05:40;3.27;;;1.80;;
15317;SDS011;7759;52.528;13.346;2023-02-28T09:08:06;2.83;;;1.50;;
15317;SDS011;7759;52.528;13.346;2023-02-28T09:10:32;1.60;;;1.17;;
15317;SDS011;7759;52.528;13.346;2023-02-28T09:12:58;1.30;;;0.90;;
15317;SDS011;7759;52.528;13.346;2023-02-28T09:15:24;1.50;;;1.00;;
15317;SDS011;7759;52.528;13.346;2023-02-28T09:17:50;4.17;;;1.53;;
15317;SDS011;7759;52.528;13.346;2023-02-28T09:20:16;1.60;;;0.83;;
15317;SDS011;7759;52.528;13.346;2023-02-28T09:22:42;3.97;;;1.43;;
15317;SDS011;7759;52.528;13.346;2023-02-28T09:25:08;3.97;;;1.50;;
15317;SDS011;7759;52.528;13.346;2023-02-28T09:27:33;6.23;;;2.10;;
15317;SDS011;7759;52.528;13.346;2023-02-28T09:29:59;2.93;;;1.40;;
15317;SDS011;7759;52.528;13.346;2023-02-28T09:32:25;34.33;;;3.60;;
15317;SDS011;7759;52.528;13.346;2023-02-28T09:34:51;1.77;;;1.30;;
15317;SDS011;7759;52.528;13.346;2023-02-28T09:37:17;7.40;;;1.30;;
15317;SDS011;7759;52.528;13.346;2023-02-28T09:39:43;1.73;;;1.10;;
15317;SDS011;7759;52.528;13.346;2023-02-28T09:42:13;3.17;;;1.30;;
15317;SDS011;7759;52.528;13.346;2023-02-28T09:44:43;2.73;;;1.20;;
15317;SDS011;7759;52.528;13.346;2023-02-28T09:47:13;2.60;;;1.20;;
15317;SDS011;7759;52.528;13.346;2023-02-28T09:49:41;2.53;;;1.30;;
15317;SDS011;7759;52.528;13.346;2023-02-28T09:52:09;3.07;;;1.30;;
15317;SDS011;7759;52.528;13.346;2023-02-28T09:54:36;2.50;;;1.40;;
15317;SDS011;7759;52.528;13.346;2023-02-28T09:57:08;3.10;;;1.33;;
15317;SDS011;7759;52.528;13.346;2023-02-28T09:59:39;4.93;;;1.30;;
15317;SDS011;7759;52.528;13.346;2023-02-28T10:04:42;1.90;;;1.00;;
15317;SDS011;7759;52.528;13.346;2023-02-28T10:07:16;1.43;;;0.93;;
15317;SDS011;7759;52.528;13.346;2023-02-28T10:09:44;4.93;;;1.50;;
15317;SDS011;7759;52.528;13.346;2023-02-28T10:12:10;3.87;;;1.27;;
15317;SDS011;7759;52.528;13.346;2023-02-28T10:14:37;3.80;;;1.20;;
15317;SDS011;7759;52.528;13.346;2023-02-28T10:17:14;3.67;;;1.30;;
15317;SDS011;7759;52.528;13.346;2023-02-28T10:19:51;3.43;;;1.30;;
15317;SDS011;7759;52.528;13.346;2023-02-28T10:22:20;2.93;;;1.40;;
15317;SDS011;7759;52.528;13.346;2023-02-28T10:24:50;2.43;;;1.40;;
15317;SDS011;7759;52.528;13.346;2023-02-28T10:27:23;3.40;;;1.13;;
15317;SDS011;7759;52.528;13.346;2023-02-28T10:29:52;2.40;;;1.30;;
15317;SDS011;7759;52.528;13.346;2023-02-28T10:32:19;2.53;;;1.43;;
15317;SDS011;7759;52.528;13.346;2023-02-28T10:37:38;1.53;;;1.30;;
15317;SDS011;7759;52.528;13.346;2023-02-28T10:40:05;2.00;;;1.00;;
15317;SDS011;7759;52.528;13.346;2023-02-28T10:42:32;4.10;;;1.10;;
15317;SDS011;7759;52.528;13.346;2023-02-28T10:45:15;2.87;;;1.23;;
15317;SDS011;7759;52.528;13.346;2023-02-28T10:58:48;2.17;;;1.10;;
15317;SDS011;7759;52.528;13.346;2023-02-28T11:01:36;2.90;;;1.33;;
15317;SDS011;7759;52.528;13.346;2023-02-28T11:04:00;1.57;;;1.13;;
15317;SDS011;7759;52.528;13.346;2023-02-28T11:06:31;1.17;;;0.83;;
15317;SDS011;7759;52.528;13.346;2023-02-28T11:08:58;2.07;;;1.23;;
15317;SDS011;7759;52.528;13.346;2023-02-28T11:11:25;2.40;;;1.13;;
15317;SDS011;7759;52.528;13.346;2023-02-28T11:13:53;1.40;;;0.83;;
15317;SDS011;7759;52.528;13.346;2023-02-28T11:16:19;3.77;;;1.10;;
15317;SDS011;7759;52.528;13.346;2023-02-28T11:18:53;2.47;;;0.87;;
15317;SDS011;7759;52.528;13.346;2023-02-28T11:21:21;2.33;;;1.40;;
15317;SDS011;7759;52.528;13.346;2023-02-28T11:23:48;1.43;;;1.00;;
15317;SDS011;7759;52.528;13.346;2023-02-28T11:26:15;2.53;;;1.10;;
15317;SDS011;7759;52.528;13.346;2023-02-28T11:28:42;2.83;;;1.10;;
15317;SDS011;7759;52.528;13.346;2023-02-28T11:33:42;1.77;;;0.83;;
15317;SDS011;7759;52.528;13.346;2023-02-28T11:36:14;2.53;;;1.10;;
15317;SDS011;7759;52.528;13.346;2023-02-28T11:38:40;1.83;;;1.20;;
15317;SDS011;7759;52.528;13.346;2023-02-28T11:46:14;1.43;;;0.83;;
15317;SDS011;7759;52.528;13.346;2023-02-28T11:48:53;2.63;;;1.50;;
15317;SDS011;7759;52.528;13.346;2023-02-28T11:51:24;2.80;;;1.70;;
15317;SDS011;7759;52.528;13.346;2023-02-28T11:54:03;2.63;;;1.97;;
15317;SDS011;7759;52.528;13.346;2023-02-28T11:56:38;1.70;;;1.33;;
15317;SDS011;7759;52.528;13.346;2023-02-28T11:59:10;3.60;;;1.63;;
15317;SDS011;7759;52.528;13.346;2023-02-28T12:04:17;3.43;;;1.57;;
15317;SDS011;7759;52.528;13.346;2023-02-28T12:06:52;2.63;;;1.53;;
15317;SDS011;7759;52.528;13.346;2023-02-28T12:14:59;1.50;;;1.20;;
15317;SDS011;7759;52.528;13.346;2023-02-28T12:17:38;4.23;;;1.50;;
15317;SDS011;7759;52.528;13.346;2023-02-28T12:22:55;4.20;;;1.70;;
15317;SDS011;7759;52.528;13.346;2023-02-28T12:25:36;3.90;;;1.70;;
15317;SDS011;7759;52.528;13.346;2023-02-28T12:28:06;1.73;;;1.30;;
15317;SDS011;7759;52.528;13.346;2023-02-28T12:30:35;3.13;;;1.57;;
15317;SDS011;7759;52.528;13.346;2023-02-28T12:33:09;8.10;;;2.10;;
15317;SDS011;7759;52.528;13.346;2023-02-28T12:35:37;3.57;;;1.60;;
15317;SDS011;7759;52.528;13.346;2023-02-28T12:38:12;2.17;;;1.60;;
15317;SDS011;7759;52.528;13.346;2023-02-28T12:40:43;2.83;;;1.90;;
15317;SDS011;7759;52.528;13.346;2023-02-28T12:43:11;2.60;;;1.70;;
15317;SDS011;7759;52.528;13.346;2023-02-28T12:45:55;3.20;;;1.63;;
15317;SDS011;7759;52.528;13.346;2023-02-28T12:48:42;2.03;;;1.37;;
15317;SDS011;7759;52.528;13.346;2023-02-28T12:51:08;4.70;;;1.67;;
15317;SDS011;7759;52.528;13.346;2023-02-28T12:53:38;4.10;;;1.80;;
15317;SDS011;7759;52.528;13.346;2023-02-28T12:58:54;2.33;;;1.37;;
15317;SDS011;7759;52.528;13.346;2023-02-28T13:01:35;8.10;;;1.77;;
15317;SDS011;7759;52.528;13.346;2023-02-28T13:04:07;3.30;;;1.80;;
15317;SDS011;7759;52.528;13.346;2023-02-28T13:09:24;3.00;;;1.70;;
15317;SDS011;7759;52.528;13.346;2023-02-28T13:11:51;3.57;;;1.93;;
15317;SDS011;7759;52.528;13.346;2023-02-28T13:19:28;2.20;;;1.43;;
15317;SDS011;7759;52.528;13.346;2023-02-28T13:21:55;3.73;;;1.40;;
15317;SDS011;7759;52.528;13.346;2023-02-28T13:27:25;2.57;;;1.67;;
15317;SDS011;7759;52.528;13.346;2023-02-28T13:29:57;5.17;;;1.80;;
15317;SDS011;7759;52.528;13.346;2023-02-28T13:39:54;5.67;;;2.10;;
15317;SDS011;7759;52.528;13.346;2023-02-28T13:47:28;3.63;;;1.83;;
15317;SDS011;7759;52.528;13.346;2023-02-28T13:50:13;3.70;;;1.80;;
15317;SDS011;7759;52.528;13.346;2023-02-28T13:55:21;2.70;;;1.50;;
15317;SDS011;7759;52.528;13.346;2023-02-28T14:03:23;3.43;;;1.80;;
15317;SDS011;7759;52.528;13.346;2023-02-28T14:06:08;1.80;;;1.50;;
15317;SDS011;7759;52.528;13.346;2023-02-28T14:08:35;2.00;;;1.40;;
15317;SDS011;7759;52.528;13.346;2023-02-28T14:11:05;3.23;;;2.00;;
15317;SDS011;7759;52.528;13.346;2023-02-28T14:16:13;3.37;;;1.63;;
15317;SDS011;7759;52.528;13.346;2023-02-28T14:18:41;3.73;;;1.80;;
15317;SDS011;7759;52.528;13.346;2023-02-28T14:21:09;4.63;;;2.07;;
15317;SDS011;7759;52.528;13.346;2023-02-28T14:23:49;2.43;;;1.80;;
15317;SDS011;7759;52.528;13.346;2023-02-28T14:29:00;2.90;;;1.50;;
15317;SDS011;7759;52.528;13.346;2023-02-28T14:31:34;3.67;;;1.63;;
15317;SDS011;7759;52.528;13.346;2023-02-28T14:34:17;1.47;;;1.30;;
15317;SDS011;7759;52.528;13.346;2023-02-28T14:36:47;2.40;;;1.80;;
15317;SDS011;7759;52.528;13.346;2023-02-28T14:39:14;2.50;;;1.57;;
15317;SDS011;7759;52.528;13.346;2023-02-28T14:41:42;2.50;;;1.67;;
15317;SDS011;7759;52.528;13.346;2023-02-28T14:44:21;4.13;;;1.60;;
15317;SDS011;7759;52.528;13.346;2023-02-28T14:46:54;7.93;;;1.63;;
15317;SDS011;7759;52.528;13.346;2023-02-28T14:49:27;2.67;;;1.53;;
15317;SDS011;7759;52.528;13.346;2023-02-28T14:52:01;3.23;;;1.57;;
15317;SDS011;7759;52.528;13.346;2023-02-28T14:54:27;2.50;;;1.63;;
15317;SDS011;7759;52.528;13.346;2023-02-28T14:56:54;4.73;;;1.67;;
15317;SDS011;7759;52.528;13.346;2023-02-28T14:59:24;4.50;;;1.97;;
15317;SDS011;7759;52.528;13.346;2023-02-28T15:01:50;3.90;;;1.43;;
15317;SDS011;7759;52.528;13.346;2023-02-28T15:04:26;1.77;;;1.40;;
15317;SDS011;7759;52.528;13.346;2023-02-28T15:07:08;2.97;;;1.77;;
15317;SDS011;7759;52.528;13.346;2023-02-28T15:09:34;2.13;;;1.40;;
15317;SDS011;7759;52.528;13.346;2023-02-28T15:12:00;2.87;;;1.30;;
15317;SDS011;7759;52.528;13.346;2023-02-28T15:14:27;1.93;;;1.30;;
15317;SDS011;7759;52.528;13.346;2023-02-28T15:17:00;5.30;;;2.50;;
15317;SDS011;7759;52.528;13.346;2023-02-28T15:19:31;3.53;;;1.63;;
15317;SDS011;7759;52.528;13.346;2023-02-28T15:22:00;3.33;;;1.60;;
15317;SDS011;7759;52.528;13.346;2023-02-28T15:24:30;3.73;;;1.70;;
15317;SDS011;7759;52.528;13.346;2023-02-28T15:26:58;2.73;;;1.73;;
15317;SDS011;7759;52.528;13.346;2023-02-28T15:29:25;3.03;;;1.77;;
15317;SDS011;7759;52.528;13.346;2023-02-28T15:32:02;3.27;;;1.57;;
15317;SDS011;7759;52.528;13.346;2023-02-28T15:34:33;10.97;;;4.33;;
15317;SDS011;7759;52.528;13.346;2023-02-28T15:36:59;3.37;;;1.83;;
15317;SDS011;7759;52.528;13.346;2023-02-28T15:39:26;4.43;;;1.80;;
15317;SDS011;7759;52.528;13.346;2023-02-28T15:42:09;3.93;;;1.97;;
15317;SDS011;7759;52.528;13.346;2023-02-28T15:44:35;2.97;;;1.73;;
15317;SDS011;7759;52.528;13.346;2023-02-28T15:47:05;1.73;;;1.40;;
15317;SDS011;7759;52.528;13.346;2023-02-28T15:49:36;2.47;;;1.43;;
15317;SDS011;7759;52.528;13.346;2023-02-28T15:52:03;2.20;;;1.30;;
15317;SDS011;7759;52.528;13.346;2023-02-28T15:54:31;2.13;;;1.43;;
15317;SDS011;7759;52.528;13.346;2023-02-28T15:57:00;3.17;;;1.30;;
15317;SDS011;7759;52.528;13.346;2023-02-28T15:59:28;3.00;;;1.80;;
15317;SDS011;7759;52.528;13.346;2023-02-28T16:04:36;2.97;;;1.47;;
15317;SDS011;7759;52.528;13.346;2023-02-28T16:07:04;2.43;;;1.40;;
15317;SDS011;7759;52.528;13.346;2023-02-28T16:09:31;4.37;;;1.83;;
15317;SDS011;7759;52.528;13.346;2023-02-28T16:12:00;2.37;;;1.40;;
15317;SDS011;7759;52.528;13.346;2023-02-28T16:14:27;2.50;;;1.80;;
15317;SDS011;7759;52.528;13.346;2023-02-28T16:16:56;6.30;;;1.63;;
15317;SDS011;7759;52.528;13.346;2023-02-28T16:19:22;4.73;;;1.57;;
15317;SDS011;7759;52.528;13.346;2023-02-28T16:21:48;2.20;;;1.63;;